sensor_id;sensor_type;location;lat;lon;timestamp;temperature;humidity
12849;DHT22;6493;50.928;7.172;2023-05-02T00:04:03;8.80;50.50
12849;DHT22;6493;50.928;7.172;2023-05-02T00:09:07;8.80;50.80
12849;DHT22;6493;50.928;7.172;2023-05-02T00:14:11;8.90;50.90
12849;DHT22;6493;50.928;7.172;2023-05-02T00:19:16;8.90;51.00
12849;DHT22;6493;50.928;7.172;2023-05-02T00:24:19;8.90;51.10
12849;DHT22;6493;50.928;7.172;2023-05-02T00:29:23;9.00;51.10
12849;DHT22;6493;50.928;7.172;2023-05-02T00:34:29;8.90;51.10
12849;DHT22;6493;50.928;7.172;2023-05-02T00:39:33;9.00;51.30
12849;DHT22;6493;50.928;7.172;2023-05-02T00:44:37;8.90;51.10
12849;DHT22;6493;50.928;7.172;2023-05-02T00:49:43;8.90;51.10
12849;DHT22;6493;50.928;7.172;2023-05-02T00:54:46;8.80;51.10
12849;DHT22;6493;50.928;7.172;2023-05-02T00:59:50;8.70;51.10
12849;DHT22;6493;50.928;7.172;2023-05-02T01:05:01;8.70;51.20
12849;DHT22;6493;50.928;7.172;2023-05-02T01:10:17;8.60;51.30
12849;DHT22;6493;50.928;7.172;2023-05-02T01:15:22;8.60;51.40
12849;DHT22;6493;50.928;7.172;2023-05-02T01:20:28;8.50;51.30
12849;DHT22;6493;50.928;7.172;2023-05-02T01:25:42;8.50;51.60
12849;DHT22;6493;50.928;7.172;2023-05-02T01:30:53;8.50;51.80
12849;DHT22;6493;50.928;7.172;2023-05-02T01:35:58;8.40;52.30
12849;DHT22;6493;50.928;7.172;2023-05-02T01:41:03;8.40;51.70
12849;DHT22;6493;50.928;7.172;2023-05-02T01:46:10;8.40;51.90
12849;DHT22;6493;50.928;7.172;2023-05-02T01:51:17;8.40;52.00
12849;DHT22;6493;50.928;7.172;2023-05-02T01:56:22;8.40;52.00
12849;DHT22;6493;50.928;7.172;2023-05-02T02:01:28;8.50;52.20
12849;DHT22;6493;50.928;7.172;2023-05-02T02:06:32;8.50;52.20
12849;DHT22;6493;50.928;7.172;2023-05-02T02:11:43;8.40;52.10
12849;DHT22;6493;50.928;7.172;2023-05-02T02:16:50;8.40;52.30
12849;DHT22;6493;50.928;7.172;2023-05-02T02:21:57;8.40;52.30
12849;DHT22;6493;50.928;7.172;2023-05-02T02:27:01;8.40;52.40
12849;DHT22;6493;50.928;7.172;2023-05-02T02:32:06;8.40;52.30
12849;DHT22;6493;50.928;7.172;2023-05-02T02:37:14;8.40;52.50
12849;DHT22;6493;50.928;7.172;2023-05-02T02:42:27;8.40;52.90
12849;DHT22;6493;50.928;7.172;2023-05-02T02:47:40;8.30;52.80
12849;DHT22;6493;50.928;7.172;2023-05-02T02:52:51;8.30;52.80
12849;DHT22;6493;50.928;7.172;2023-05-02T02:57:59;8.30;53.10
12849;DHT22;6493;50.928;7.172;2023-05-02T03:03:06;8.30;53.20
12849;DHT22;6493;50.928;7.172;2023-05-02T03:08:10;8.30;53.10
12849;DHT22;6493;50.928;7.172;2023-05-02T03:13:14;8.30;53.10
12849;DHT22;6493;50.928;7.172;2023-05-02T03:18:20;8.20;53.10
12849;DHT22;6493;50.928;7.172;2023-05-02T03:23:25;8.20;53.20
12849;DHT22;6493;50.928;7.172;2023-05-02T03:28:30;8.10;53.20
12849;DHT22;6493;50.928;7.172;2023-05-02T03:33:36;8.10;53.00
12849;DHT22;6493;50.928;7.172;2023-05-02T03:38:39;8.10;53.30
12849;DHT22;6493;50.928;7.172;2023-05-02T03:43:46;8.10;54.10
12849;DHT22;6493;50.928;7.172;2023-05-02T03:48:51;8.10;53.30
12849;DHT22;6493;50.928;7.172;2023-05-02T03:53:55;8.20;53.50
12849;DHT22;6493;50.928;7.172;2023-05-02T03:59:00;8.20;53.40
12849;DHT22;6493;50.928;7.172;2023-05-02T04:04:05;8.20;53.40
12849;DHT22;6493;50.928;7.172;2023-05-02T04:09:15;8.20;53.50
12849;DHT22;6493;50.928;7.172;2023-05-02T04:14:26;8.20;53.50
12849;DHT22;6493;50.928;7.172;2023-05-02T04:19:33;8.20;53.50
12849;DHT22;6493;50.928;7.172;2023-05-02T04:24:37;8.30;53.70
12849;DHT22;6493;50.928;7.172;2023-05-02T04:29:42;8.30;53.60
12849;DHT22;6493;50.928;7.172;2023-05-02T04:34:48;8.30;53.60
12849;DHT22;6493;50.928;7.172;2023-05-02T04:39:52;8.30;53.70
12849;DHT22;6493;50.928;7.172;2023-05-02T04:44:59;8.30;53.70
12849;DHT22;6493;50.928;7.172;2023-05-02T04:50:06;8.30;53.80
12849;DHT22;6493;50.928;7.172;2023-05-02T04:55:10;8.30;53.90
12849;DHT22;6493;50.928;7.172;2023-05-02T05:00:15;8.30;53.90
12849;DHT22;6493;50.928;7.172;2023-05-02T05:05:20;8.30;54.00
12849;DHT22;6493;50.928;7.172;2023-05-02T05:10:24;8.30;54.00
12849;DHT22;6493;50.928;7.172;2023-05-02T05:15:28;8.30;54.60
12849;DHT22;6493;50.928;7.172;2023-05-02T05:20:35;8.30;54.10
12849;DHT22;6493;50.928;7.172;2023-05-02T05:25:40;8.30;54.20
12849;DHT22;6493;50.928;7.172;2023-05-02T05:30:48;8.40;54.30
12849;DHT22;6493;50.928;7.172;2023-05-02T05:36:02;8.40;54.30
12849;DHT22;6493;50.928;7.172;2023-05-02T05:41:06;8.40;54.50
12849;DHT22;6493;50.928;7.172;2023-05-02T05:46:12;8.50;54.30
12849;DHT22;6493;50.928;7.172;2023-05-02T05:51:17;8.50;54.30
12849;DHT22;6493;50.928;7.172;2023-05-02T05:56:22;8.50;54.40
12849;DHT22;6493;50.928;7.172;2023-05-02T06:01:32;8.50;54.40
12849;DHT22;6493;50.928;7.172;2023-05-02T06:06:39;8.50;54.50
12849;DHT22;6493;50.928;7.172;2023-05-02T06:11:43;8.50;54.60
12849;DHT22;6493;50.928;7.172;2023-05-02T06:16:47;8.50;54.70
12849;DHT22;6493;50.928;7.172;2023-05-02T06:21:52;8.50;54.80
12849;DHT22;6493;50.928;7.172;2023-05-02T06:26:57;8.50;54.80
12849;DHT22;6493;50.928;7.172;2023-05-02T06:32:01;8.50;54.90
12849;DHT22;6493;50.928;7.172;2023-05-02T06:37:06;8.50;54.80
12849;DHT22;6493;50.928;7.172;2023-05-02T06:42:10;8.50;54.90
12849;DHT22;6493;50.928;7.172;2023-05-02T06:47:14;8.50;54.90
12849;DHT22;6493;50.928;7.172;2023-05-02T06:52:19;8.50;54.90
12849;DHT22;6493;50.928;7.172;2023-05-02T06:57:23;8.50;55.10
12849;DHT22;6493;50.928;7.172;2023-05-02T07:02:27;8.50;55.20
12849;DHT22;6493;50.928;7.172;2023-05-02T07:07:32;8.50;55.40
12849;DHT22;6493;50.928;7.172;2023-05-02T07:12:35;8.50;55.30
12849;DHT22;6493;50.928;7.172;2023-05-02T07:17:39;8.50;55.30
12849;DHT22;6493;50.928;7.172;2023-05-02T07:22:44;8.40;55.40
12849;DHT22;6493;50.928;7.172;2023-05-02T07:27:48;8.40;55.60
12849;DHT22;6493;50.928;7.172;2023-05-02T07:32:51;8.30;55.70
12849;DHT22;6493;50.928;7.172;2023-05-02T07:37:56;8.30;55.90
12849;DHT22;6493;50.928;7.172;2023-05-02T07:43:00;8.40;56.00
12849;DHT22;6493;50.928;7.172;2023-05-02T07:48:04;8.50;56.10
12849;DHT22;6493;50.928;7.172;2023-05-02T07:53:09;8.60;56.30
12849;DHT22;6493;50.928;7.172;2023-05-02T07:58:13;8.60;56.60
12849;DHT22;6493;50.928;7.172;2023-05-02T08:03:17;8.70;56.10
12849;DHT22;6493;50.928;7.172;2023-05-02T08:08:23;8.80;56.30
12849;DHT22;6493;50.928;7.172;2023-05-02T08:13:26;8.90;56.70
12849;DHT22;6493;50.928;7.172;2023-05-02T08:18:30;9.00;56.90
12849;DHT22;6493;50.928;7.172;2023-05-02T08:23:35;9.20;56.80
12849;DHT22;6493;50.928;7.172;2023-05-02T08:28:38;9.20;56.40
12849;DHT22;6493;50.928;7.172;2023-05-02T08:33:42;9.30;56.30
12849;DHT22;6493;50.928;7.172;2023-05-02T08:38:47;9.40;56.40
12849;DHT22;6493;50.928;7.172;2023-05-02T08:43:51;9.40;56.20
12849;DHT22;6493;50.928;7.172;2023-05-02T08:48:56;9.50;56.50
12849;DHT22;6493;50.928;7.172;2023-05-02T08:54:02;9.70;57.10
12849;DHT22;6493;50.928;7.172;2023-05-02T08:59:07;10.00;57.20
12849;DHT22;6493;50.928;7.172;2023-05-02T09:04:11;10.10;56.70
12849;DHT22;6493;50.928;7.172;2023-05-02T09:09:17;10.30;56.30
12849;DHT22;6493;50.928;7.172;2023-05-02T09:14:21;10.20;55.80
12849;DHT22;6493;50.928;7.172;2023-05-02T09:19:25;10.20;56.30
12849;DHT22;6493;50.928;7.172;2023-05-02T09:24:30;10.20;55.80
12849;DHT22;6493;50.928;7.172;2023-05-02T09:29:34;10.20;55.70
12849;DHT22;6493;50.928;7.172;2023-05-02T09:34:39;10.10;55.50
12849;DHT22;6493;50.928;7.172;2023-05-02T09:40:06;10.10;55.30
12849;DHT22;6493;50.928;7.172;2023-05-02T09:45:19;9.90;55.10
12849;DHT22;6493;50.928;7.172;2023-05-02T09:50:33;9.80;55.00
12849;DHT22;6493;50.928;7.172;2023-05-02T09:55:38;9.60;54.90
12849;DHT22;6493;50.928;7.172;2023-05-02T10:00:42;9.50;54.90
12849;DHT22;6493;50.928;7.172;2023-05-02T10:05:46;9.40;54.90
12849;DHT22;6493;50.928;7.172;2023-05-02T10:10:53;9.30;54.80
12849;DHT22;6493;50.928;7.172;2023-05-02T10:15:58;9.20;54.80
12849;DHT22;6493;50.928;7.172;2023-05-02T10:21:07;9.20;54.80
12849;DHT22;6493;50.928;7.172;2023-05-02T10:26:14;9.10;54.90
12849;DHT22;6493;50.928;7.172;2023-05-02T10:31:18;9.20;55.00
12849;DHT22;6493;50.928;7.172;2023-05-02T10:36:22;9.20;55.30
12849;DHT22;6493;50.928;7.172;2023-05-02T10:41:30;9.40;55.50
12849;DHT22;6493;50.928;7.172;2023-05-02T10:46:36;9.60;55.60
12849;DHT22;6493;50.928;7.172;2023-05-02T10:51:42;9.90;55.90
12849;DHT22;6493;50.928;7.172;2023-05-02T10:57:04;10.20;55.60
12849;DHT22;6493;50.928;7.172;2023-05-02T11:07:46;10.60;55.50
12849;DHT22;6493;50.928;7.172;2023-05-02T11:12:51;10.90;55.80
12849;DHT22;6493;50.928;7.172;2023-05-02T11:17:58;11.10;55.40
12849;DHT22;6493;50.928;7.172;2023-05-02T11:23:21;11.30;55.00
12849;DHT22;6493;50.928;7.172;2023-05-02T11:28:46;11.40;54.30
12849;DHT22;6493;50.928;7.172;2023-05-02T11:33:54;11.40;54.30
12849;DHT22;6493;50.928;7.172;2023-05-02T11:38:59;11.40;54.00
12849;DHT22;6493;50.928;7.172;2023-05-02T11:44:04;11.40;53.30
12849;DHT22;6493;50.928;7.172;2023-05-02T11:49:08;11.20;53.60
12849;DHT22;6493;50.928;7.172;2023-05-02T11:54:18;11.10;53.80
12849;DHT22;6493;50.928;7.172;2023-05-02T11:59:24;11.10;54.10
12849;DHT22;6493;50.928;7.172;2023-05-02T12:04:27;11.20;53.80
12849;DHT22;6493;50.928;7.172;2023-05-02T12:09:31;11.20;53.80
12849;DHT22;6493;50.928;7.172;2023-05-02T12:14:36;11.20;53.80
12849;DHT22;6493;50.928;7.172;2023-05-02T12:19:40;11.20;53.70
12849;DHT22;6493;50.928;7.172;2023-05-02T12:24:43;11.30;53.50
12849;DHT22;6493;50.928;7.172;2023-05-02T12:29:49;11.20;53.10
12849;DHT22;6493;50.928;7.172;2023-05-02T12:34:53;11.30;53.20
12849;DHT22;6493;50.928;7.172;2023-05-02T12:39:56;11.20;53.20
12849;DHT22;6493;50.928;7.172;2023-05-02T12:45:02;11.20;53.30
12849;DHT22;6493;50.928;7.172;2023-05-02T12:50:06;11.40;53.70
12849;DHT22;6493;50.928;7.172;2023-05-02T12:55:16;11.50;53.20
12849;DHT22;6493;50.928;7.172;2023-05-02T13:00:21;11.60;52.60
12849;DHT22;6493;50.928;7.172;2023-05-02T13:05:25;11.60;52.60
12849;DHT22;6493;50.928;7.172;2023-05-02T13:10:29;11.60;52.70
12849;DHT22;6493;50.928;7.172;2023-05-02T13:15:34;11.60;52.80
12849;DHT22;6493;50.928;7.172;2023-05-02T13:20:37;11.80;52.90
12849;DHT22;6493;50.928;7.172;2023-05-02T13:25:41;11.90;52.90
12849;DHT22;6493;50.928;7.172;2023-05-02T13:30:45;12.10;52.50
12849;DHT22;6493;50.928;7.172;2023-05-02T13:35:49;12.20;52.10
12849;DHT22;6493;50.928;7.172;2023-05-02T13:40:53;12.20;51.50
12849;DHT22;6493;50.928;7.172;2023-05-02T13:45:58;12.20;51.40
12849;DHT22;6493;50.928;7.172;2023-05-02T13:51:02;12.20;51.40
12849;DHT22;6493;50.928;7.172;2023-05-02T13:56:05;12.20;51.30
12849;DHT22;6493;50.928;7.172;2023-05-02T14:01:10;12.20;51.50
12849;DHT22;6493;50.928;7.172;2023-05-02T14:06:14;12.10;51.20
12849;DHT22;6493;50.928;7.172;2023-05-02T14:11:18;12.10;51.10
12849;DHT22;6493;50.928;7.172;2023-05-02T14:16:23;12.10;51.10
12849;DHT22;6493;50.928;7.172;2023-05-02T14:21:26;12.10;50.70
12849;DHT22;6493;50.928;7.172;2023-05-02T14:26:30;12.10;50.80
12849;DHT22;6493;50.928;7.172;2023-05-02T14:31:37;12.00;50.10
12849;DHT22;6493;50.928;7.172;2023-05-02T14:36:41;12.00;50.30
12849;DHT22;6493;50.928;7.172;2023-05-02T14:41:44;12.10;50.50
12849;DHT22;6493;50.928;7.172;2023-05-02T14:46:53;12.10;50.60
12849;DHT22;6493;50.928;7.172;2023-05-02T14:51:57;12.20;50.30
12849;DHT22;6493;50.928;7.172;2023-05-02T14:57:01;12.30;50.30
12849;DHT22;6493;50.928;7.172;2023-05-02T15:02:06;12.30;50.20
12849;DHT22;6493;50.928;7.172;2023-05-02T15:07:10;12.40;50.10
12849;DHT22;6493;50.928;7.172;2023-05-02T15:12:13;12.30;49.40
12849;DHT22;6493;50.928;7.172;2023-05-02T15:17:18;12.30;49.60
12849;DHT22;6493;50.928;7.172;2023-05-02T15:22:22;12.30;49.20
12849;DHT22;6493;50.928;7.172;2023-05-02T15:27:27;12.20;49.30
12849;DHT22;6493;50.928;7.172;2023-05-02T15:32:32;12.20;49.10
12849;DHT22;6493;50.928;7.172;2023-05-02T15:37:35;12.20;49.30
12849;DHT22;6493;50.928;7.172;2023-05-02T15:42:39;12.20;49.30
12849;DHT22;6493;50.928;7.172;2023-05-02T15:47:44;12.20;48.80
12849;DHT22;6493;50.928;7.172;2023-05-02T15:52:48;12.20;48.70
12849;DHT22;6493;50.928;7.172;2023-05-02T15:57:52;12.10;48.50
12849;DHT22;6493;50.928;7.172;2023-05-02T16:02:57;12.00;48.40
12849;DHT22;6493;50.928;7.172;2023-05-02T16:08:02;12.00;48.20
12849;DHT22;6493;50.928;7.172;2023-05-02T16:13:06;11.90;48.10
12849;DHT22;6493;50.928;7.172;2023-05-02T16:18:11;11.90;48.10
12849;DHT22;6493;50.928;7.172;2023-05-02T16:23:14;11.80;47.90
12849;DHT22;6493;50.928;7.172;2023-05-02T16:28:19;11.70;47.70
12849;DHT22;6493;50.928;7.172;2023-05-02T16:33:24;11.60;48.20
12849;DHT22;6493;50.928;7.172;2023-05-02T16:38:27;11.50;47.50
12849;DHT22;6493;50.928;7.172;2023-05-02T16:43:31;11.40;47.60
12849;DHT22;6493;50.928;7.172;2023-05-02T16:48:35;11.40;47.10
12849;DHT22;6493;50.928;7.172;2023-05-02T16:53:39;11.30;47.10
12849;DHT22;6493;50.928;7.172;2023-05-02T16:58:44;11.20;47.00
12849;DHT22;6493;50.928;7.172;2023-05-02T17:03:50;11.10;47.00
12849;DHT22;6493;50.928;7.172;2023-05-02T17:08:54;11.00;46.90
12849;DHT22;6493;50.928;7.172;2023-05-02T17:13:57;10.90;47.00
12849;DHT22;6493;50.928;7.172;2023-05-02T17:19:02;10.80;46.60
12849;DHT22;6493;50.928;7.172;2023-05-02T17:24:06;10.70;46.80
12849;DHT22;6493;50.928;7.172;2023-05-02T17:29:09;10.70;47.00
12849;DHT22;6493;50.928;7.172;2023-05-02T17:34:14;10.60;47.00
12849;DHT22;6493;50.928;7.172;2023-05-02T17:39:18;10.60;47.00
12849;DHT22;6493;50.928;7.172;2023-05-02T17:44:21;10.60;47.10
12849;DHT22;6493;50.928;7.172;2023-05-02T17:49:27;10.50;47.10
12849;DHT22;6493;50.928;7.172;2023-05-02T17:54:30;10.50;47.10
12849;DHT22;6493;50.928;7.172;2023-05-02T17:59:37;10.40;47.00
12849;DHT22;6493;50.928;7.172;2023-05-02T18:04:42;10.40;46.80
12849;DHT22;6493;50.928;7.172;2023-05-02T18:09:47;10.30;46.80
12849;DHT22;6493;50.928;7.172;2023-05-02T18:14:51;10.30;46.80
12849;DHT22;6493;50.928;7.172;2023-05-02T18:19:56;10.10;46.70
12849;DHT22;6493;50.928;7.172;2023-05-02T18:24:59;10.10;46.70
12849;DHT22;6493;50.928;7.172;2023-05-02T18:30:05;10.00;46.70
12849;DHT22;6493;50.928;7.172;2023-05-02T18:35:10;9.90;46.50
12849;DHT22;6493;50.928;7.172;2023-05-02T18:40:14;9.80;46.50
12849;DHT22;6493;50.928;7.172;2023-05-02T18:45:17;9.70;46.50
12849;DHT22;6493;50.928;7.172;2023-05-02T18:50:23;9.60;46.50
12849;DHT22;6493;50.928;7.172;2023-05-02T18:55:27;9.50;46.40
12849;DHT22;6493;50.928;7.172;2023-05-02T19:00:30;9.50;46.50
12849;DHT22;6493;50.928;7.172;2023-05-02T19:05:39;9.30;46.30
12849;DHT22;6493;50.928;7.172;2023-05-02T19:10:43;9.20;46.30
12849;DHT22;6493;50.928;7.172;2023-05-02T19:15:46;9.10;46.30
12849;DHT22;6493;50.928;7.172;2023-05-02T19:20:51;9.00;46.10
12849;DHT22;6493;50.928;7.172;2023-05-02T19:25:54;8.90;46.60
12849;DHT22;6493;50.928;7.172;2023-05-02T19:30:58;8.70;46.00
12849;DHT22;6493;50.928;7.172;2023-05-02T19:36:03;8.60;46.10
12849;DHT22;6493;50.928;7.172;2023-05-02T19:41:08;8.50;46.20
12849;DHT22;6493;50.928;7.172;2023-05-02T19:46:13;8.40;46.20
12849;DHT22;6493;50.928;7.172;2023-05-02T19:51:19;8.30;46.30
12849;DHT22;6493;50.928;7.172;2023-05-02T19:56:26;8.20;46.30
12849;DHT22;6493;50.928;7.172;2023-05-02T20:01:31;8.10;46.20
12849;DHT22;6493;50.928;7.172;2023-05-02T20:06:36;8.00;46.30
12849;DHT22;6493;50.928;7.172;2023-05-02T20:11:39;7.90;46.30
12849;DHT22;6493;50.928;7.172;2023-05-02T20:16:43;7.80;46.30
12849;DHT22;6493;50.928;7.172;2023-05-02T20:21:48;7.70;46.30
12849;DHT22;6493;50.928;7.172;2023-05-02T20:26:53;7.60;46.40
12849;DHT22;6493;50.928;7.172;2023-05-02T20:31:56;7.50;46.40
12849;DHT22;6493;50.928;7.172;2023-05-02T20:37:03;7.40;46.40
12849;DHT22;6493;50.928;7.172;2023-05-02T20:42:08;7.30;46.40
12849;DHT22;6493;50.928;7.172;2023-05-02T20:47:12;7.20;46.40
12849;DHT22;6493;50.928;7.172;2023-05-02T20:52:17;7.10;46.50
12849;DHT22;6493;50.928;7.172;2023-05-02T20:57:20;7.10;46.50
12849;DHT22;6493;50.928;7.172;2023-05-02T21:02:25;7.00;46.50
12849;DHT22;6493;50.928;7.172;2023-05-02T21:07:30;6.90;46.40
12849;DHT22;6493;50.928;7.172;2023-05-02T21:12:34;6.80;46.50
12849;DHT22;6493;50.928;7.172;2023-05-02T21:17:38;6.70;46.50
12849;DHT22;6493;50.928;7.172;2023-05-02T21:22:43;6.60;46.50
12849;DHT22;6493;50.928;7.172;2023-05-02T21:27:47;6.50;46.50
12849;DHT22;6493;50.928;7.172;2023-05-02T21:32:50;6.40;46.50
12849;DHT22;6493;50.928;7.172;2023-05-02T21:37:55;6.20;46.50
12849;DHT22;6493;50.928;7.172;2023-05-02T21:42:59;6.10;47.30
12849;DHT22;6493;50.928;7.172;2023-05-02T21:48:02;6.00;46.80
12849;DHT22;6493;50.928;7.172;2023-05-02T21:53:08;5.80;46.90
12849;DHT22;6493;50.928;7.172;2023-05-02T21:58:12;5.70;46.80
12849;DHT22;6493;50.928;7.172;2023-05-02T22:03:17;5.60;46.80
12849;DHT22;6493;50.928;7.172;2023-05-02T22:08:22;5.50;46.80
12849;DHT22;6493;50.928;7.172;2023-05-02T22:13:26;5.40;47.10
12849;DHT22;6493;50.928;7.172;2023-05-02T22:18:30;5.30;47.10
12849;DHT22;6493;50.928;7.172;2023-05-02T22:23:34;5.10;47.20
12849;DHT22;6493;50.928;7.172;2023-05-02T22:28:38;5.00;47.30
12849;DHT22;6493;50.928;7.172;2023-05-02T22:33:42;4.90;47.40
12849;DHT22;6493;50.928;7.172;2023-05-02T22:38:48;4.90;47.40
12849;DHT22;6493;50.928;7.172;2023-05-02T22:43:51;4.80;47.50
12849;DHT22;6493;50.928;7.172;2023-05-02T22:48:55;4.70;47.40
12849;DHT22;6493;50.928;7.172;2023-05-02T22:54:00;4.70;47.60
12849;DHT22;6493;50.928;7.172;2023-05-02T22:59:05;4.60;47.40
12849;DHT22;6493;50.928;7.172;2023-05-02T23:04:09;4.60;47.60
12849;DHT22;6493;50.928;7.172;2023-05-02T23:09:14;4.50;47.50
12849;DHT22;6493;50.928;7.172;2023-05-02T23:14:18;4.50;47.60
12849;DHT22;6493;50.928;7.172;2023-05-02T23:19:24;4.40;47.80
12849;DHT22;6493;50.928;7.172;2023-05-02T23:24:29;4.30;47.60
12849;DHT22;6493;50.928;7.172;2023-05-02T23:29:32;4.20;48.00
12849;DHT22;6493;50.928;7.172;2023-05-02T23:34:36;4.20;47.80
12849;DHT22;6493;50.928;7.172;2023-05-02T23:39:41;4.10;48.10
12849;DHT22;6493;50.928;7.172;2023-05-02T23:44:44;4.00;47.80
12849;DHT22;6493;50.928;7.172;2023-05-02T23:49:48;3.90;48.70
12849;DHT22;6493;50.928;7.172;2023-05-02T23:54:53;3.80;48.30
12849;DHT22;6493;50.928;7.172;2023-05-02T23:59:56;3.70;49.00
